Time;durP1;ratioP1;P1;durP2;ratioP2;P2;SDS_P1;SDS_P2;PMS_P1;PMS_P2;Temp;Humidity;BMP_temperature;BMP_pressure;BME280_temperature;BME280_humidity;BME280_pressure;Samples;Min_cycle;Max_cycle;Signal;HPM_P1;HPM_P2
2021/06/23 00:01:38;;;;;;;30.33;6.35;;;;;;;26.34;47.99;100904.31;5051450;28;20044;-66
2021/06/23 00:04:06;;;;;;;19.73;5.28;;;;;;;26.28;47.99;100908.19;5051239;28;20045;-66
2021/06/23 00:06:35;;;;;;;19.27;5.70;;;;;;;26.30;48.11;100903.59;5030408;28;20046;-66
2021/06/23 00:09:04;;;;;;;19.00;5.60;;;;;;;26.28;48.06;100908.19;5011489;28;20126;-66
2021/06/23 00:11:39;;;;;;;17.10;5.25;;;;;;;26.27;48.13;100906.44;5010772;28;20045;-66
2021/06/23 00:14:08;;;;;;;21.90;5.35;;;;;;;26.20;48.20;100910.34;5010411;28;20073;-66
2021/06/23 00:16:36;;;;;;;21.23;5.13;;;;;;;26.22;48.22;100910.28;5011530;28;20049;-66
2021/06/23 00:19:04;;;;;;;22.17;5.57;;;;;;;26.23;48.21;100910.22;5011734;28;20042;-66
2021/06/23 00:21:32;;;;;;;20.80;4.93;;;;;;;26.26;48.02;100914.63;5011467;28;20053;-66
2021/06/23 00:24:00;;;;;;;25.70;5.47;;;;;;;26.29;47.77;100909.94;5010481;28;20038;-66
2021/06/23 00:26:28;;;;;;;20.98;5.60;;;;;;;26.27;47.61;100905.53;5011399;28;20037;-66
2021/06/23 00:28:56;;;;;;;20.45;5.55;;;;;;;26.19;47.80;100906.75;5011160;28;20387;-66
2021/06/23 00:31:25;;;;;;;25.95;5.30;;;;;;;26.23;47.83;100901.19;5011496;28;20046;-66
2021/06/23 00:33:55;;;;;;;25.67;5.82;;;;;;;26.18;47.88;100896.91;5010870;28;20042;-66
2021/06/23 00:36:23;;;;;;;22.73;5.55;;;;;;;26.16;47.90;100897.91;5010477;28;20046;-66
2021/06/23 00:38:50;;;;;;;23.25;5.05;;;;;;;26.15;47.69;100897.03;5010685;28;20034;-66
2021/06/23 00:41:19;;;;;;;21.08;6.07;;;;;;;26.08;47.59;100906.38;5011083;28;20099;-66
2021/06/23 00:43:48;;;;;;;24.60;4.85;;;;;;;26.05;47.86;100898.41;5011265;28;20045;-65
2021/06/23 00:46:17;;;;;;;19.98;5.65;;;;;;;26.07;48.01;100880.25;5010374;28;20103;-65
2021/06/23 00:48:46;;;;;;;23.55;5.82;;;;;;;26.10;47.92;100882.84;5010626;28;20104;-65
2021/06/23 00:51:15;;;;;;;20.60;5.75;;;;;;;26.06;47.64;100886.63;5010934;28;20049;-65
2021/06/23 00:53:43;;;;;;;21.92;5.90;;;;;;;25.95;47.81;100891.66;5011193;28;20398;-66
2021/06/23 00:56:11;;;;;;;21.38;5.03;;;;;;;25.93;48.27;100890.84;5030033;28;20625;-66
2021/06/23 00:58:40;;;;;;;20.40;4.70;;;;;;;25.88;48.20;100890.19;5030285;28;20041;-65
2021/06/23 01:01:09;;;;;;;19.08;4.45;;;;;;;25.88;48.22;100895.59;5029273;28;20054;-65
2021/06/23 01:03:36;;;;;;;17.67;5.65;;;;;;;25.86;48.16;100894.81;5029000;28;20041;-66
2021/06/23 01:06:06;;;;;;;25.77;5.72;;;;;;;25.62;48.70;100899.47;5030195;28;20052;-66
2021/06/23 01:08:34;;;;;;;23.77;4.53;;;;;;;25.50;49.15;100901.78;5030061;28;20037;-66
2021/06/23 01:11:07;;;;;;;23.83;5.20;;;;;;;25.54;48.86;100884.47;5029284;28;20103;-66
2021/06/23 01:13:37;;;;;;;20.20;5.22;;;;;;;25.59;48.73;100890.63;5030121;28;20473;-66
2021/06/23 01:16:07;;;;;;;24.45;5.22;;;;;;;25.61;48.56;100896.81;5029764;28;20402;-66
2021/06/23 01:18:36;;;;;;;22.10;5.22;;;;;;;25.50;48.82;100896.38;5029112;28;20053;-66
2021/06/23 01:21:06;;;;;;;19.80;5.25;;;;;;;25.37;49.13;100894.22;5010380;28;20128;-66
2021/06/23 01:23:36;;;;;;;26.13;5.63;;;;;;;25.32;49.48;100896.25;5010056;28;20038;-66
2021/06/23 01:26:04;;;;;;;22.48;5.28;;;;;;;25.36;49.26;100894.28;5021944;28;20125;-66
2021/06/23 01:28:32;;;;;;;18.77;4.55;;;;;;;25.40;49.18;100896.78;5030047;28;20034;-66
2021/06/23 01:31:00;;;;;;;24.15;6.82;;;;;;;25.65;48.53;100895.75;5029650;28;20092;-66
2021/06/23 01:33:29;;;;;;;22.10;5.18;;;;;;;25.74;48.16;100892.63;5029103;28;20398;-67
2021/06/23 01:35:58;;;;;;;20.55;5.32;;;;;;;25.73;48.38;100897.16;5029589;28;20362;-66
2021/06/23 01:38:26;;;;;;;22.05;5.88;;;;;;;25.74;48.38;100892.63;5029173;28;20409;-66
2021/06/23 01:40:56;;;;;;;17.98;5.82;;;;;;;25.71;48.49;100898.19;5029198;28;20437;-66
2021/06/23 01:43:25;;;;;;;28.33;5.57;;;;;;;25.59;48.65;100901.44;5011907;28;20041;-66
2021/06/23 01:45:52;;;;;;;28.75;5.63;;;;;;;25.57;48.96;100908.69;5029254;28;20033;-66
2021/06/23 01:48:22;;;;;;;23.00;5.05;;;;;;;25.53;49.03;100898.97;5029713;28;20048;-66
2021/06/23 01:50:54;;;;;;;22.70;5.53;;;;;;;25.42;49.23;100903.00;5029365;28;20099;-66
2021/06/23 01:53:21;;;;;;;17.80;5.68;;;;;;;25.40;49.62;100891.38;5028619;28;20049;-66
2021/06/23 01:55:49;;;;;;;18.85;5.20;;;;;;;25.47;49.49;100896.53;5029192;28;20052;-66
2021/06/23 01:58:20;;;;;;;21.67;4.72;;;;;;;25.35;49.32;100893.41;5029174;28;20099;-66
2021/06/23 02:00:54;;;;;;;22.27;5.47;;;;;;;25.25;49.51;100897.47;5029377;28;20378;-66
2021/06/23 02:03:30;;;;;;;;;;;;;;;25.18;49.79;100893.25;5030111;28;20095;-66
2021/06/23 02:06:05;;;;;;;22.55;5.10;;;;;;;25.07;49.94;100890.16;5028423;28;19921;-66
2021/06/23 02:09:00;;;;;;;23.58;5.47;;;;;;;24.99;50.37;100886.88;5029047;28;20045;-66
2021/06/23 02:11:34;;;;;;;22.80;5.72;;;;;;;24.97;50.27;100886.94;5009229;28;20046;-67
2021/06/23 02:14:21;;;;;;;30.90;6.10;;;;;;;24.97;50.31;100884.22;5009073;28;20038;-66
2021/06/23 02:16:50;;;;;;;21.95;6.18;;;;;;;25.02;50.12;100884.03;5009141;28;20064;-66
2021/06/23 02:19:18;;;;;;;16.00;5.30;;;;;;;25.04;50.27;100878.56;5008726;28;20486;-66
2021/06/23 02:21:46;;;;;;;21.60;5.78;;;;;;;25.03;50.05;100883.09;5008693;28;20050;-65
2021/06/23 02:24:14;;;;;;;29.20;5.65;;;;;;;25.03;50.12;100872.28;5009818;28;20034;-66
2021/06/23 02:26:43;;;;;;;19.42;4.82;;;;;;;25.03;50.02;100877.69;5009326;28;20092;-66
2021/06/23 02:29:12;;;;;;;24.42;6.05;;;;;;;25.04;50.12;100876.75;5008365;28;20071;-66
2021/06/23 02:31:41;;;;;;;22.08;6.18;;;;;;;24.94;50.38;100878.94;5012225;28;20050;-66
2021/06/23 02:34:10;;;;;;;22.40;5.88;;;;;;;24.85;50.51;100878.44;5012754;28;20133;-66
2021/06/23 02:36:39;;;;;;;23.13;5.30;;;;;;;24.84;50.80;100887.47;5015214;28;20124;-65
2021/06/23 02:39:08;;;;;;;28.05;6.50;;;;;;;24.83;50.67;100883.00;5013077;28;20398;-66
2021/06/23 02:41:36;;;;;;;18.88;5.32;;;;;;;24.79;50.65;100882.28;5012822;28;20579;-66
2021/06/23 02:44:05;;;;;;;16.75;4.75;;;;;;;24.77;50.74;100888.66;5013291;28;20041;-66
2021/06/23 02:46:35;;;;;;;22.48;5.97;;;;;;;24.80;50.47;100892.13;5013481;28;20042;-66
2021/06/23 02:49:04;;;;;;;23.10;6.07;;;;;;;24.83;50.29;100888.41;5012722;28;20045;-66
2021/06/23 02:51:40;;;;;;;24.42;5.47;;;;;;;24.86;50.06;100889.19;5012619;28;20092;-66
2021/06/23 02:54:08;;;;;;;20.05;5.20;;;;;;;24.81;50.38;100896.56;5013019;28;20062;-66
2021/06/23 02:56:37;;;;;;;23.40;5.47;;;;;;;24.71;50.36;100894.31;5012386;28;20046;-66
2021/06/23 02:59:05;;;;;;;23.75;6.45;;;;;;;24.67;50.65;100887.28;5012776;28;20090;-66
2021/06/23 03:01:34;;;;;;;24.63;5.25;;;;;;;24.69;50.49;100893.50;5012422;28;20045;-66
2021/06/23 03:04:02;;;;;;;20.48;5.22;;;;;;;24.71;50.65;100894.31;5012867;28;20398;-66
2021/06/23 03:06:30;;;;;;;19.55;5.55;;;;;;;24.72;50.73;100891.56;5011881;28;20042;-66
2021/06/23 03:08:58;;;;;;;25.95;5.20;;;;;;;24.72;50.86;100902.38;5012397;28;20042;-66
2021/06/23 03:11:32;;;;;;;22.27;5.63;;;;;;;24.66;51.10;100897.22;5012042;28;20030;-66
2021/06/23 03:13:59;;;;;;;21.90;5.43;;;;;;;24.58;51.40;100902.03;5012721;28;20057;-66
2021/06/23 03:16:27;;;;;;;21.13;5.70;;;;;;;24.58;51.44;100897.50;5011883;28;20055;-67
2021/06/23 03:18:56;;;;;;;23.75;6.57;;;;;;;24.66;51.37;100894.50;5012761;28;20053;-66
2021/06/23 03:21:24;;;;;;;16.63;4.65;;;;;;;24.71;51.09;100888.91;5012768;28;20116;-66
2021/06/23 03:23:53;;;;;;;23.27;5.55;;;;;;;24.74;51.37;100894.22;5012134;28;20030;-66
2021/06/23 03:26:21;;;;;;;22.00;5.43;;;;;;;24.80;51.13;100893.97;5012164;28;20042;-66
2021/06/23 03:28:49;;;;;;;22.17;5.15;;;;;;;24.88;50.89;100897.19;5012469;28;20033;-66
2021/06/23 03:31:17;;;;;;;22.42;5.05;;;;;;;24.90;50.66;100889.94;5012030;28;20492;-66
2021/06/23 03:33:45;;;;;;;20.67;4.60;;;;;;;24.98;50.69;100895.91;5012482;28;20049;-66
2021/06/23 03:36:14;;;;;;;19.40;5.50;;;;;;;25.03;50.55;100885.78;5012436;28;20046;-66
2021/06/23 03:38:41;;;;;;;18.75;4.45;;;;;;;25.04;50.57;100889.38;5011491;28;20449;-66
2021/06/23 03:41:09;;;;;;;22.23;5.68;;;;;;;25.07;50.74;100890.16;5011801;28;20433;-66
2021/06/23 03:43:36;;;;;;;20.85;5.53;;;;;;;25.14;50.55;100890.75;5010947;28;20062;-66
2021/06/23 03:46:05;;;;;;;24.10;5.22;;;;;;;25.21;50.07;100893.13;5012227;28;20026;-66
2021/06/23 03:48:32;;;;;;;26.23;5.20;;;;;;;25.33;50.31;100889.03;5012082;28;20045;-66
2021/06/23 03:51:00;;;;;;;21.13;5.28;;;;;;;25.47;49.99;100899.25;5011796;28;20045;-66
2021/06/23 03:53:29;;;;;;;13.38;4.72;;;;;;;25.60;49.78;100889.69;5011858;28;20096;-66
2021/06/23 03:55:57;;;;;;;21.80;6.53;;;;;;;25.70;49.80;100891.00;5011514;28;20136;-66
2021/06/23 03:58:24;;;;;;;20.48;6.80;;;;;;;25.84;49.92;100896.69;5011509;28;20100;-66
2021/06/23 04:00:52;;;;;;;27.23;6.63;;;;;;;25.94;49.85;100897.13;4992469;28;20087;-66
2021/06/23 04:03:20;;;;;;;21.92;5.95;;;;;;;26.05;49.94;100894.84;4992324;28;20038;-66
2021/06/23 04:05:48;;;;;;;24.98;5.25;;;;;;;26.15;49.77;100901.56;4994441;28;20030;-67
2021/06/23 04:08:15;;;;;;;21.27;6.07;;;;;;;26.28;49.20;100907.31;5011615;28;20034;-65
2021/06/23 04:10:44;;;;;;;21.65;5.60;;;;;;;26.46;49.24;100914.56;5012060;28;20041;-66
2021/06/23 04:13:12;;;;;;;21.48;5.70;;;;;;;26.61;48.98;100910.22;5023149;28;20037;-66
2021/06/23 04:15:40;;;;;;;20.55;5.35;;;;;;;26.72;48.98;100919.59;5031055;28;20038;-67
2021/06/23 04:18:07;;;;;;;20.33;4.82;;;;;;;26.88;48.66;100917.03;5030587;28;20091;-66
2021/06/23 04:20:36;;;;;;;19.27;5.35;;;;;;;27.03;48.56;100915.41;5015012;28;20038;-66
2021/06/23 04:23:03;;;;;;;18.92;4.70;;;;;;;27.16;47.89;100917.44;5031165;28;20034;-66
2021/06/23 04:25:31;;;;;;;22.63;5.55;;;;;;;27.28;47.43;100918.66;5031052;28;20556;-66
2021/06/23 04:28:01;;;;;;;16.15;4.72;;;;;;;27.47;47.46;100924.00;5030739;28;20061;-66
2021/06/23 04:30:28;;;;;;;17.42;4.65;;;;;;;27.63;47.66;100930.44;5030803;28;20528;-66
2021/06/23 04:32:56;;;;;;;23.98;5.43;;;;;;;27.76;47.78;100921.53;5030336;28;20571;-66
2021/06/23 04:35:23;;;;;;;16.80;5.38;;;;;;;27.97;47.88;100934.91;5030076;28;20069;-66
2021/06/23 04:37:51;;;;;;;18.70;5.20;;;;;;;28.14;47.45;100933.09;5030876;28;20078;-66
2021/06/23 04:40:19;;;;;;;16.85;4.70;;;;;;;28.32;46.82;100925.78;5030529;28;20041;-67
2021/06/23 04:42:46;;;;;;;36.80;6.72;;;;;;;28.53;46.52;100929.13;5031011;28;20038;-65
2021/06/23 04:45:17;;;;;;;16.98;5.05;;;;;;;28.77;46.26;100926.88;5031230;28;20042;-67
2021/06/23 04:47:45;;;;;;;17.30;4.07;;;;;;;28.98;46.15;100932.94;5030363;28;20042;-66
2021/06/23 04:50:13;;;;;;;22.05;4.85;;;;;;;29.22;45.64;100939.66;5029836;28;20041;-66
2021/06/23 04:52:40;;;;;;;24.42;6.32;;;;;;;29.45;45.02;100944.66;5030802;28;20037;-67
2021/06/23 04:55:09;;;;;;;19.08;5.25;;;;;;;29.67;44.64;100942.38;5029729;28;20038;-66
2021/06/23 04:57:38;;;;;;;21.00;5.18;;;;;;;29.89;44.13;100943.78;5030419;28;20103;-66
2021/06/23 05:00:08;;;;;;;23.92;4.60;;;;;;;30.13;43.78;100944.16;5029856;28;20046;-66
2021/06/23 05:02:37;;;;;;;20.65;4.88;;;;;;;30.38;42.97;100938.91;5029892;28;20041;-66
2021/06/23 05:05:06;;;;;;;23.88;4.95;;;;;;;30.62;42.56;100937.34;5029926;28;20033;-67
2021/06/23 05:07:33;;;;;;;21.83;4.50;;;;;;;30.87;42.33;100952.97;5030070;28;20037;-67
2021/06/23 05:10:01;;;;;;;16.20;4.63;;;;;;;31.10;41.77;100943.28;5029911;28;20467;-67
2021/06/23 05:12:30;;;;;;;25.35;6.53;;;;;;;31.31;41.63;100940.97;5030263;28;20052;-67
2021/06/23 05:14:58;;;;;;;20.50;4.88;;;;;;;31.55;41.67;100953.81;5029806;28;20370;-66
2021/06/23 05:17:27;;;;;;;18.63;4.82;;;;;;;31.80;40.58;100949.41;5029832;28;20049;-67
2021/06/23 05:19:56;;;;;;;25.73;5.43;;;;;;;32.03;39.84;100955.00;5029972;28;20121;-67
2021/06/23 05:22:24;;;;;;;27.13;4.68;;;;;;;32.19;39.00;100954.81;5029120;28;20037;-67
2021/06/23 05:24:52;;;;;;;19.83;5.15;;;;;;;32.44;38.82;100956.66;5029482;28;20038;-67
2021/06/23 05:27:20;;;;;;;19.45;5.20;;;;;;;32.67;38.84;100958.63;5029844;28;20045;-67
2021/06/23 05:29:47;;;;;;;14.80;4.40;;;;;;;32.83;38.15;100958.34;5029759;28;20044;-67
2021/06/23 05:32:15;;;;;;;22.70;4.50;;;;;;;33.07;38.13;100966.63;5029230;28;20038;-66
2021/06/23 05:34:43;;;;;;;20.85;4.35;;;;;;;33.29;37.70;100964.03;5010333;28;20092;-67
2021/06/23 05:37:12;;;;;;;32.17;5.22;;;;;;;33.50;36.63;100966.97;5008558;28;20469;-67
2021/06/23 05:39:40;;;;;;;23.70;4.15;;;;;;;33.56;36.22;100969.25;5009463;28;20053;-67
2021/06/23 05:42:08;;;;;;;25.98;4.78;;;;;;;33.62;35.62;100968.78;4996379;28;20713;-67
2021/06/23 05:44:35;;;;;;;25.25;4.20;;;;;;;33.65;35.13;100967.69;4990474;28;20760;-68
2021/06/23 05:47:03;;;;;;;17.15;3.85;;;;;;;33.65;34.61;100965.81;5009829;28;20117;-67
2021/06/23 05:49:31;;;;;;;23.40;4.88;;;;;;;33.83;34.46;100967.16;5009737;28;20037;-67
2021/06/23 05:51:59;;;;;;;23.55;4.43;;;;;;;34.01;33.81;100967.56;5008451;28;20042;-68
2021/06/23 05:54:28;;;;;;;25.15;5.10;;;;;;;34.08;33.95;100977.03;5009425;28;20682;-67
2021/06/23 05:56:55;;;;;;;39.67;6.07;;;;;;;34.10;34.17;100977.78;5008396;28;20038;-67
2021/06/23 05:59:23;;;;;;;20.17;5.30;;;;;;;34.23;33.89;100978.59;5008247;28;20042;-67
2021/06/23 06:01:51;;;;;;;25.63;4.63;;;;;;;34.43;34.05;100979.75;5008873;28;20116;-67
2021/06/23 06:04:18;;;;;;;19.45;3.90;;;;;;;34.73;33.58;100984.63;5008814;28;20073;-67
2021/06/23 06:06:46;;;;;;;23.42;4.82;;;;;;;34.86;33.72;100984.47;5008826;28;20042;-67
2021/06/23 06:09:14;;;;;;;14.63;3.70;;;;;;;35.01;33.51;100984.09;5009865;28;20045;-67
2021/06/23 06:11:43;;;;;;;22.20;4.00;;;;;;;35.10;33.07;100980.59;5009496;28;20510;-67
2021/06/23 06:14:11;;;;;;;17.85;4.05;;;;;;;35.15;32.81;100988.44;5009111;28;20497;-67
2021/06/23 06:16:38;;;;;;;23.10;4.45;;;;;;;35.15;33.07;100982.94;5009123;28;20050;-67
2021/06/23 06:19:06;;;;;;;27.48;4.50;;;;;;;35.28;32.93;100988.31;5008921;28;20600;-68
2021/06/23 06:21:34;;;;;;;23.70;5.07;;;;;;;35.39;32.58;100980.03;5008990;28;20042;-67
2021/06/23 06:24:01;;;;;;;24.17;4.07;;;;;;;35.41;32.42;100980.78;5009244;28;20042;-67
2021/06/23 06:26:29;;;;;;;19.50;3.70;;;;;;;35.62;32.47;100978.94;5008858;28;20136;-67
2021/06/23 06:28:58;;;;;;;21.42;5.00;;;;;;;35.76;32.41;100970.44;5009093;28;20058;-68
2021/06/23 06:31:26;;;;;;;25.60;5.28;;;;;;;35.91;32.48;100980.06;5009516;28;20622;-67
2021/06/23 06:33:53;;;;;;;21.33;4.28;;;;;;;35.94;31.73;100985.31;5008597;28;20042;-67
2021/06/23 06:36:21;;;;;;;20.05;4.47;;;;;;;35.94;31.95;100981.69;5009137;28;20084;-67
2021/06/23 06:38:49;;;;;;;19.55;5.05;;;;;;;36.02;32.04;100981.03;5008680;28;20502;-67
2021/06/23 06:41:16;;;;;;;22.65;4.28;;;;;;;36.07;31.95;100979.59;5016700;28;20042;-67
2021/06/23 06:43:44;;;;;;;21.65;5.32;;;;;;;36.17;31.74;100977.81;5009534;28;20034;-67
2021/06/23 06:46:13;;;;;;;21.33;3.65;;;;;;;36.29;31.55;100976.75;5012933;28;20046;-67
2021/06/23 06:48:41;;;;;;;21.42;5.13;;;;;;;36.34;31.64;100968.94;5013035;28;20117;-67
2021/06/23 06:51:09;;;;;;;22.67;4.60;;;;;;;36.21;31.50;100979.28;5008871;28;20093;-67
2021/06/23 06:53:37;;;;;;;16.85;4.85;;;;;;;36.14;31.47;100977.19;5008617;28;20045;-67
2021/06/23 06:56:05;;;;;;;20.35;4.22;;;;;;;36.05;31.69;100973.34;5008762;28;20041;-67
2021/06/23 06:58:33;;;;;;;18.17;3.97;;;;;;;35.97;31.86;100970.44;5008677;28;20038;-67
2021/06/23 07:01:01;;;;;;;22.92;4.63;;;;;;;36.05;32.28;100973.34;5007799;28;20042;-67
2021/06/23 07:03:31;;;;;;;21.35;4.25;;;;;;;36.17;31.82;100972.31;5008370;28;20042;-67
2021/06/23 07:05:59;;;;;;;20.92;4.38;;;;;;;36.18;32.09;100976.81;5008661;28;20045;-68
2021/06/23 07:08:27;;;;;;;15.63;3.95;;;;;;;36.28;31.79;100972.25;5008461;28;20034;-67
2021/06/23 07:10:55;;;;;;;22.48;4.93;;;;;;;36.24;31.52;100970.75;5007872;28;20138;-67
2021/06/23 07:13:22;;;;;;;22.85;5.25;;;;;;;36.21;31.65;100972.94;5002748;28;20037;-68
2021/06/23 07:15:51;;;;;;;22.20;5.05;;;;;;;36.16;31.94;100973.31;5007161;28;20122;-67
2021/06/23 07:18:19;;;;;;;18.70;3.85;;;;;;;36.19;31.85;100977.69;5012129;28;20119;-66
2021/06/23 07:20:48;;;;;;;21.42;4.70;;;;;;;36.27;32.04;100981.50;5012775;28;20057;-67
2021/06/23 07:23:16;;;;;;;14.10;3.60;;;;;;;36.22;31.82;100981.03;5010404;28;20498;-67
2021/06/23 07:25:45;;;;;;;24.92;4.88;;;;;;;36.20;32.38;100980.31;5012160;28;20050;-67
2021/06/23 07:28:20;;;;;;;21.33;4.40;;;;;;;36.11;32.55;100981.06;5011469;28;20050;-67
2021/06/23 07:30:47;;;;;;;20.13;3.88;;;;;;;36.14;32.25;100980.81;5019393;28;20049;-67
2021/06/23 07:33:16;;;;;;;27.42;4.22;;;;;;;36.08;32.48;100981.34;5027211;28;20041;-67
2021/06/23 07:38:30;;;;;;;18.75;5.15;;;;;;;35.90;32.63;100989.34;5006303;28;20089;-68
2021/06/23 07:41:01;;;;;;;17.65;4.32;;;;;;;35.91;32.97;100979.19;5010860;28;20044;-66
2021/06/23 07:43:29;;;;;;;20.33;3.90;;;;;;;35.99;32.74;100984.91;5010953;28;20034;-66
2021/06/23 07:45:58;;;;;;;20.30;3.92;;;;;;;36.07;32.66;100985.09;5010872;28;20830;-67
2021/06/23 07:48:30;;;;;;;15.90;3.63;;;;;;;35.96;32.80;100987.94;5004681;28;20041;-67
2021/06/23 07:51:06;;;;;;;21.45;3.97;;;;;;;35.93;33.13;100982.69;5009756;28;20046;-66
2021/06/23 07:53:51;;;;;;;25.58;4.05;;;;;;;36.13;32.92;100990.06;5009817;28;20038;-66
2021/06/23 07:56:26;;;;;;;22.27;4.72;;;;;;;36.05;33.03;100987.09;5010661;28;20050;-66
2021/06/23 08:10:02;;;;;;;23.20;4.57;;;;;;;35.76;33.49;100991.53;5011865;28;20077;-66
2021/06/23 08:12:39;;;;;;;17.35;3.67;;;;;;;35.54;33.81;100987.84;5011427;28;20556;-67
2021/06/23 08:15:08;;;;;;;19.48;3.53;;;;;;;35.77;33.89;100999.66;5006761;28;20056;-66
2021/06/23 08:17:36;;;;;;;20.38;4.07;;;;;;;35.76;33.60;100999.78;5009177;28;20038;-67
2021/06/23 08:20:04;;;;;;;17.60;3.72;;;;;;;35.75;33.78;101001.66;5010338;28;20428;-66
2021/06/23 08:22:31;;;;;;;19.40;4.50;;;;;;;35.93;33.32;101011.06;5011111;28;20045;-66
2021/06/23 08:25:00;;;;;;;22.00;3.80;;;;;;;35.74;33.66;101010.03;5010270;28;20034;-67
2021/06/23 08:27:28;;;;;;;20.92;3.95;;;;;;;35.52;33.86;101020.06;5010061;28;20132;-66
2021/06/23 08:29:55;;;;;;;21.35;3.88;;;;;;;35.47;33.49;101014.09;5005449;28;20418;-66
2021/06/23 08:32:23;;;;;;;21.92;4.60;;;;;;;35.52;33.52;101024.69;5010190;28;20046;-66
2021/06/23 08:34:51;;;;;;;26.73;4.43;;;;;;;35.52;33.35;101028.31;5008366;28;20049;-66
2021/06/23 08:37:19;;;;;;;20.45;4.07;;;;;;;35.69;33.79;101032.41;5010845;28;20042;-66
2021/06/23 08:39:46;;;;;;;23.17;4.55;;;;;;;35.75;33.76;101031.00;5010004;28;20084;-66
2021/06/23 08:42:16;;;;;;;22.80;5.10;;;;;;;35.75;34.13;101033.75;5011435;28;20097;-66
2021/06/23 08:44:43;;;;;;;22.65;3.85;;;;;;;35.77;34.19;101037.25;5011380;28;20053;-66
2021/06/23 08:47:11;;;;;;;19.30;4.10;;;;;;;35.45;34.50;101032.56;5010169;28;20117;-66
2021/06/23 08:49:39;;;;;;;22.58;4.07;;;;;;;35.50;34.70;101035.81;5010280;28;20053;-66
2021/06/23 08:52:07;;;;;;;23.25;3.85;;;;;;;35.74;34.81;101038.38;5010733;28;20046;-66
2021/06/23 08:54:35;;;;;;;20.15;4.07;;;;;;;35.58;34.79;101030.53;5010321;28;20066;-66
2021/06/23 08:57:03;;;;;;;30.58;4.88;;;;;;;35.70;34.96;101030.53;5010706;28;20042;-66
2021/06/23 08:59:32;;;;;;;21.60;4.82;;;;;;;35.82;34.37;101030.38;5010213;28;20042;-66
2021/06/23 09:02:00;;;;;;;23.98;5.22;;;;;;;35.84;34.62;101024.75;5010665;28;20038;-66
2021/06/23 09:04:27;;;;;;;20.77;3.80;;;;;;;35.92;34.53;101025.81;5010394;28;20744;-66
2021/06/23 09:06:58;;;;;;;19.02;4.57;;;;;;;36.17;34.27;101030.06;5027842;28;20038;-65
2021/06/23 09:09:28;;;;;;;19.48;4.32;;;;;;;36.21;34.04;101022.44;5030063;28;20063;-65
2021/06/23 09:11:56;;;;;;;21.02;3.40;;;;;;;36.19;34.02;101028.06;5030230;28;20041;-65
2021/06/23 09:14:25;;;;;;;14.43;4.05;;;;;;;36.49;33.55;101026.38;5026123;28;20042;-65
2021/06/23 09:17:09;;;;;;;29.13;4.47;;;;;;;36.67;32.54;101028.38;5010817;28;20080;-65
2021/06/23 09:19:39;;;;;;;24.50;4.55;;;;;;;36.42;33.01;101033.41;5010524;28;20054;-65
2021/06/23 09:22:36;;;;;;;20.20;4.80;;;;;;;36.05;33.50;101025.59;5010210;28;20137;-65
2021/06/23 09:25:22;;;;;;;24.13;4.32;;;;;;;35.95;33.75;101027.44;5013740;28;20410;-65
2021/06/23 09:27:52;;;;;;;24.63;4.13;;;;;;;36.04;33.51;101026.59;5009293;28;20046;-65
2021/06/23 09:30:26;;;;;;;18.75;3.70;;;;;;;36.31;32.72;101024.22;5010444;28;20053;-65
2021/06/23 09:33:16;;;;;;;25.92;3.83;;;;;;;36.46;32.48;101018.38;5010256;28;20850;-65
2021/06/23 09:35:47;;;;;;;21.75;5.15;;;;;;;36.47;31.11;101014.63;5009878;28;20049;-65
2021/06/23 09:38:41;;;;;;;25.20;4.57;;;;;;;36.43;31.06;101015.91;5029894;28;20061;-65
2021/06/23 09:41:21;;;;;;;25.67;3.97;;;;;;;36.20;30.77;101018.81;5028714;28;20044;-66
2021/06/23 09:43:52;;;;;;;26.08;4.53;;;;;;;36.24;31.61;101022.16;5028895;28;20049;-66
2021/06/23 09:46:25;;;;;;;22.15;4.00;;;;;;;36.56;31.01;101013.81;5029177;28;20056;-65
2021/06/23 09:49:05;;;;;;;28.92;4.38;;;;;;;36.92;31.50;101010.50;5029017;28;20444;-65
2021/06/23 09:51:40;;;;;;;25.08;3.97;;;;;;;36.93;31.00;101006.75;5028914;28;20537;-65
2021/06/23 09:54:09;;;;;;;19.67;4.40;;;;;;;36.81;31.53;101013.38;5029573;28;20034;-66
2021/06/23 09:56:41;;;;;;;27.45;4.88;;;;;;;36.72;31.54;101004.06;5029112;28;20057;-66
2021/06/23 09:59:17;;;;;;;25.60;5.03;;;;;;;36.50;31.49;101009.69;5029550;28;20099;-66
2021/06/23 10:01:44;;;;;;;25.30;5.22;;;;;;;36.34;32.59;101004.72;5028688;28;20033;-65
2021/06/23 10:04:13;;;;;;;30.95;4.70;;;;;;;35.97;33.47;101010.81;5024488;28;20041;-64
2021/06/23 10:06:45;;;;;;;22.38;4.22;;;;;;;36.03;33.88;101008.38;5019825;28;20033;-65
2021/06/23 10:09:15;;;;;;;25.65;5.03;;;;;;;36.09;32.61;101015.22;5029102;28;20069;-64
2021/06/23 10:11:44;;;;;;;26.33;4.82;;;;;;;36.22;32.27;101011.31;5017560;28;20038;-66
2021/06/23 10:14:12;;;;;;;24.50;4.78;;;;;;;36.23;32.57;101004.81;5009433;28;20042;-66
2021/06/23 10:16:40;;;;;;;33.10;5.18;;;;;;;35.92;32.91;101014.81;5009193;28;20046;-66
2021/06/23 10:19:09;;;;;;;26.92;5.28;;;;;;;35.67;33.25;101004.16;5009567;28;20131;-66
2021/06/23 10:21:39;;;;;;;21.60;4.28;;;;;;;35.53;33.18;101004.44;5009301;28;20600;-66
2021/06/23 10:24:10;;;;;;;24.95;4.70;;;;;;;35.51;33.61;101015.56;5008966;28;20062;-66
2021/06/23 10:26:41;;;;;;;18.77;3.60;;;;;;;35.67;33.04;101017.00;5009577;28;20053;-66
2021/06/23 10:29:10;;;;;;;24.70;4.20;;;;;;;35.70;33.25;101020.44;5009364;28;20048;-66
2021/06/23 10:31:38;;;;;;;24.10;4.97;;;;;;;35.76;33.76;101016.28;5007410;28;20053;-66
2021/06/23 10:34:07;;;;;;;28.73;4.35;;;;;;;35.52;34.19;101022.81;5008959;28;20121;-66
2021/06/23 10:36:35;;;;;;;25.73;4.85;;;;;;;35.36;35.02;101016.88;5009075;28;20042;-66
2021/06/23 10:39:06;;;;;;;19.00;3.95;;;;;;;35.26;35.65;101015.91;5008871;28;20030;-66
2021/06/23 10:41:46;;;;;;;24.83;4.82;;;;;;;35.32;35.91;101014.50;5007804;28;20108;-66
2021/06/23 10:44:23;;;;;;;22.67;4.25;;;;;;;35.40;35.58;101014.75;5011002;28;20049;-66
2021/06/23 10:46:54;;;;;;;20.67;4.18;;;;;;;35.21;36.28;101017.28;5008692;28;20045;-66
2021/06/23 10:49:47;;;;;;;23.15;5.00;;;;;;;35.26;35.93;101013.16;5009180;28;20382;-66
2021/06/23 10:52:38;;;;;;;24.92;4.80;;;;;;;35.27;35.79;101011.28;5013732;28;20397;-66
2021/06/23 10:55:25;;;;;;;23.70;3.95;;;;;;;35.39;35.69;101008.38;5030721;28;20048;-66
2021/06/23 10:57:54;;;;;;;23.00;4.15;;;;;;;35.50;35.51;101012.97;5000505;28;20410;-66
2021/06/23 11:00:30;;;;;;;26.52;4.65;;;;;;;35.67;35.46;101008.78;5012426;28;20042;-65
2021/06/23 11:03:05;;;;;;;28.50;4.38;;;;;;;35.80;35.33;101010.38;5013066;28;20048;-66
2021/06/23 11:05:38;;;;;;;17.83;4.35;;;;;;;35.88;35.52;101001.47;5013088;28;20104;-66
2021/06/23 11:08:31;;;;;;;22.58;3.80;;;;;;;35.86;35.55;101003.47;5011203;28;20097;-65
2021/06/23 11:11:03;;;;;;;21.55;4.57;;;;;;;35.71;35.88;101004.81;4993738;28;20501;-65
2021/06/23 11:13:31;;;;;;;20.98;4.13;;;;;;;35.99;35.30;101006.03;5012236;28;20045;-66
2021/06/23 11:16:00;;;;;;;27.73;5.10;;;;;;;35.93;35.67;100999.19;5012254;28;20038;-66
2021/06/23 11:18:37;;;;;;;24.50;4.45;;;;;;;36.21;35.27;101004.06;5012889;28;20062;-66
2021/06/23 11:21:18;;;;;;;36.25;6.18;;;;;;;36.08;34.51;101005.22;5007796;28;20038;-66
2021/06/23 11:23:52;;;;;;;24.05;4.35;;;;;;;36.02;34.91;101003.91;4994687;28;20043;-65
2021/06/23 11:26:39;;;;;;;;;;;;;;;36.14;34.42;101000.06;5009287;28;20030;-66
2021/06/23 11:29:34;;;;;;;20.98;4.72;;;;;;;36.23;34.52;101006.69;5009796;28;20024;-66
2021/06/23 11:32:27;;;;;;;22.52;4.15;;;;;;;36.47;34.24;101000.88;5009915;28;20124;-66
2021/06/23 11:34:59;;;;;;;23.50;4.80;;;;;;;36.53;34.21;101000.31;5008438;28;20066;-65
2021/06/23 11:37:37;;;;;;;23.40;5.15;;;;;;;36.56;33.63;101000.06;5008975;28;20049;-65
2021/06/23 11:40:17;;;;;;;31.23;6.90;;;;;;;36.80;33.46;101003.38;5012109;28;20065;-66
2021/06/23 11:42:44;;;;;;;21.88;4.63;;;;;;;36.84;33.29;101001.19;5011829;28;20549;-66
2021/06/23 11:45:15;;;;;;;23.20;4.78;;;;;;;37.07;33.80;100998.09;5012234;28;20034;-66